Pacific Seagull — 3FVM5 — position and weather

sailwx.info

Track history (hours):
 
Tides and Currents Weather Stations Pressure Air Temp Water Temp Dewpoint Dewpoint Depression Visibility Wind Speed Wind Dir Waves Ship Positions

Pacific Seagull

Last reported at 2017-Sep-14 18:15 UTC. Time now 2017-Sep-19 22:15 UTC.
Position N 36°51' W 075°52'.

Length 199 m; draft 12.5 m.

Type: Cargo ship. MMSI: 370485000.

Date/timePositionNaut miles runAvg speedWind from/ knotsBaromVisibWave heightAir tempDewpointWater temp
2017-Sep-14 18:15N 36°51' W 075°52'311.0
2017-Sep-14 18:00N 36°53' W 075°54'510.0
2017-Sep-14 17:30N 36°57' W 075°59'4 8.1
2017-Sep-14 17:00N 37°00' W 076°02'4 7.4
2017-Sep-14 16:30N 37°03' W 076°05'2711.3
2017-Sep-14 14:08N 37°30' W 076°03'212.1
2017-Sep-14 14:00N 37°31' W 076°03'611.4
2017-Sep-14 13:31N 37°36' W 076°05'611.9
2017-Sep-14 13:00N 37°41' W 076°10'611.4
2017-Sep-14 12:30N 37°47' W 076°11'611.9
2017-Sep-14 12:00N 37°53' W 076°09'611.3
2017-Sep-14 11:30N 37°58' W 076°11'611.7
2017-Sep-14 11:00N 38°04' W 076°13'712.3
2017-Sep-14 10:28N 38°10' W 076°14'1012.3
2017-Sep-14 09:41N 38°19' W 076°18'1512.7
2017-Sep-14 08:31N 38°33' W 076°26'612.1
2017-Sep-14 08:01N 38°39' W 076°25'612.2
2017-Sep-14 07:31N 38°45' W 076°26'612.4
2017-Sep-14 07:00N 38°51' W 076°24'5 9.8
2017-Sep-14 06:31N 38°56' W 076°24'1 2.1
2017-Sep-14 05:58N 38°57' W 076°24'0 0.0
2017-Sep-14 05:28N 38°57' W 076°24'0 0.0
2017-Sep-14 04:58N 38°57' W 076°24'0 0.0
2017-Sep-14 04:28N 38°57' W 076°24'0 0.0
2017-Sep-14 03:58N 38°57' W 076°24'0 0.0
2017-Sep-14 03:28N 38°57' W 076°24'0 0.0
2017-Sep-14 02:58N 38°57' W 076°24'0 0.0
2017-Sep-14 02:28N 38°57' W 076°24'0 0.0
2017-Sep-14 01:58N 38°57' W 076°24'0 0.0
2017-Sep-14 01:28N 38°57' W 076°24'0 0.0
2017-Sep-14 00:58N 38°57' W 076°24'0 0.1
2017-Sep-14 00:28N 38°57' W 076°24'0 0.1
2017-Sep-14 00:00N 38°57' W 076°24'3 5.5
2017-Sep-13 23:30N 38°60' W 076°23'611.7
2017-Sep-13 23:01N 39°05' W 076°24'611.1
2017-Sep-13 22:30N 39°11' W 076°26'5 9.4
2017-Sep-13 22:00N 39°13' W 076°31'3 6.3
2017-Sep-13 21:30N 39°15' W 076°34'0 0.5
2017-Sep-13 21:00N 39°15' W 076°34'0 0.0
2017-Sep-13 20:30N 39°15' W 076°34'0 0.0
2017-Sep-13 20:00N 39°15' W 076°34'0 0.0
2017-Sep-13 19:30N 39°15' W 076°34'0 0.0
2017-Sep-13 19:00N 39°15' W 076°34'0 0.0
2017-Sep-13 18:29N 39°15' W 076°34'0 0.0
2017-Sep-13 17:59N 39°15' W 076°34'0 0.0
2017-Sep-13 17:29N 39°15' W 076°34'0 0.0
2017-Sep-13 16:59N 39°15' W 076°34'0 0.0
2017-Sep-13 16:29N 39°15' W 076°34'0 0.0
2017-Sep-13 15:59N 39°15' W 076°34'0 0.0
2017-Sep-13 15:29N 39°15' W 076°34'0 0.0
2017-Sep-13 14:59N 39°15' W 076°34'0 0.0
2017-Sep-13 14:29N 39°15' W 076°34'0 0.0
2017-Sep-13 13:59N 39°15' W 076°34'0 0.0
2017-Sep-13 13:29N 39°15' W 076°34'0 0.0
2017-Sep-13 12:59N 39°15' W 076°34'0 0.0
2017-Sep-13 12:30N 39°15' W 076°34'0 0.0
2017-Sep-13 12:00N 39°15' W 076°34'0 0.0
2017-Sep-13 11:30N 39°15' W 076°34'0 0.0
2017-Sep-13 10:59N 39°15' W 076°34'0 0.0
2017-Sep-13 10:30N 39°15' W 076°34'0 0.0
2017-Sep-13 10:00N 39°15' W 076°34'0 0.0
2017-Sep-13 09:30N 39°15' W 076°34'0 0.0
2017-Sep-13 09:00N 39°15' W 076°34'0 0.0
2017-Sep-13 08:30N 39°15' W 076°34'0 0.0
2017-Sep-13 07:59N 39°15' W 076°34'0 0.0
2017-Sep-13 07:30N 39°15' W 076°34'0 0.0
2017-Sep-13 07:00N 39°15' W 076°34'0 0.0
2017-Sep-13 06:29N 39°15' W 076°34'0 0.0
2017-Sep-13 06:00N 39°15' W 076°34'0 0.0
2017-Sep-13 05:29N 39°15' W 076°34'0 0.0
2017-Sep-13 05:00N 39°15' W 076°34'0 0.0
2017-Sep-13 04:29N 39°15' W 076°34'0 0.0
2017-Sep-13 04:00N 39°15' W 076°34'0 0.0
2017-Sep-13 03:29N 39°15' W 076°34'0 0.0
2017-Sep-13 03:00N 39°15' W 076°34'0 0.0
2017-Sep-13 02:30N 39°15' W 076°34'0 0.0
2017-Sep-13 02:00N 39°15' W 076°34'0 0.0
2017-Sep-13 01:29N 39°15' W 076°34'0 0.0
2017-Sep-13 00:59N 39°15' W 076°34'0 0.0
2017-Sep-13 00:30N 39°15' W 076°34'0 0.0
2017-Sep-12 23:59N 39°15' W 076°34'0 0.0
2017-Sep-12 23:29N 39°15' W 076°34'0 0.0
2017-Sep-12 23:00N 39°15' W 076°34'0 0.0
2017-Sep-12 22:29N 39°15' W 076°34'0 0.4
2017-Sep-12 22:00N 39°15' W 076°34'2 3.6
2017-Sep-12 21:30N 39°14' W 076°33'4 7.4
2017-Sep-12 21:00N 39°12' W 076°29'510.0
2017-Sep-12 20:31N 39°08' W 076°24'713.0
2017-Sep-12 20:00N 39°02' W 076°23'511.0
2017-Sep-12 19:31N 38°56' W 076°25'0 0.7
2017-Sep-12 19:00N 38°56' W 076°25'0 0.0
2017-Sep-12 18:30N 38°56' W 076°25'0 0.0
2017-Sep-12 18:00N 38°56' W 076°25'0 0.0
2017-Sep-12 17:30N 38°56' W 076°25'0 0.2
2017-Sep-12 17:00N 38°56' W 076°25'0 0.2
2017-Sep-12 16:30N 38°56' W 076°25'0 0.0
2017-Sep-12 16:00N 38°56' W 076°25'0 0.0
2017-Sep-12 15:30N 38°56' W 076°25'0 0.1
2017-Sep-12 15:00N 38°56' W 076°25'0 0.0
2017-Sep-12 14:30N 38°56' W 076°25'0 0.0
2017-Sep-12 14:00N 38°56' W 076°25'0 0.0
2017-Sep-12 13:30N 38°56' W 076°25'0 0.1
2017-Sep-12 13:00N 38°56' W 076°25'0 0.1
2017-Sep-12 12:30N 38°56' W 076°25'0 0.1
2017-Sep-12 12:00N 38°56' W 076°25'0 0.1
2017-Sep-12 11:30N 38°56' W 076°25'0 0.1
2017-Sep-12 11:00N 38°56' W 076°25'0 0.0
2017-Sep-12 10:30N 38°56' W 076°25'0 0.1
2017-Sep-12 10:00N 38°56' W 076°25'0 0.1
2017-Sep-12 09:30N 38°56' W 076°25'0 0.0
2017-Sep-12 09:00N 38°56' W 076°25'0 0.0
2017-Sep-12 08:30N 38°56' W 076°25'0 0.0
2017-Sep-12 08:00N 38°56' W 076°25'0 0.0
2017-Sep-12 07:30N 38°56' W 076°25'0 0.0
2017-Sep-12 07:00N 38°56' W 076°25'0 0.0
2017-Sep-12 06:30N 38°56' W 076°25'0 0.1
2017-Sep-12 06:00N 38°56' W 076°25'0 0.1
2017-Sep-12 05:30N 38°56' W 076°25'0 0.1
2017-Sep-12 05:00N 38°56' W 076°25'0 0.1
2017-Sep-12 04:30N 38°56' W 076°25'0 0.1
2017-Sep-12 04:00N 38°56' W 076°25'0 0.0
2017-Sep-12 03:30N 38°56' W 076°25'0 0.0
2017-Sep-12 03:00N 38°56' W 076°25'0 0.0
2017-Sep-12 02:30N 38°56' W 076°25'0 0.0
2017-Sep-12 02:00N 38°56' W 076°25'0 0.0
2017-Sep-12 01:30N 38°56' W 076°25'0 0.0
2017-Sep-12 01:00N 38°56' W 076°25'0 0.1
2017-Sep-12 00:30N 38°56' W 076°25'0 0.1
2017-Sep-12 00:00N 38°56' W 076°25'0 0.2
2017-Sep-11 23:30N 38°56' W 076°25'0 0.2
2017-Sep-11 23:00N 38°56' W 076°25'0 0.1
2017-Sep-11 22:30N 38°56' W 076°25'0 0.0
2017-Sep-11 22:00N 38°56' W 076°25'0 0.0
2017-Sep-11 21:30N 38°56' W 076°25'0 0.0
2017-Sep-11 21:00N 38°56' W 076°25'0 0.0
2017-Sep-11 20:30N 38°56' W 076°25'0 0.0
2017-Sep-11 20:00N 38°56' W 076°25'0 0.0
2017-Sep-11 19:30N 38°56' W 076°25'0 0.0
2017-Sep-11 19:00N 38°56' W 076°25'0 0.0
2017-Sep-11 18:30N 38°56' W 076°25'0 0.0
2017-Sep-11 18:00N 38°56' W 076°25'0 0.0
2017-Sep-11 17:30N 38°56' W 076°25'0 0.0
2017-Sep-11 17:00N 38°56' W 076°25'0 0.0
2017-Sep-11 16:27N 38°56' W 076°25'0 0.2
2017-Sep-11 16:00N 38°56' W 076°25'0 0.1
2017-Sep-11 15:30N 38°56' W 076°25'0 0.1
2017-Sep-11 15:00N 38°56' W 076°25'0 0.1
2017-Sep-11 14:30N 38°56' W 076°25'0 0.0
2017-Sep-11 14:00N 38°56' W 076°25'0 0.0
2017-Sep-11 13:30N 38°56' W 076°25'0 0.0
2017-Sep-11 13:00N 38°56' W 076°25'0 0.0
2017-Sep-11 12:30N 38°56' W 076°25'0 0.1
2017-Sep-11 12:00N 38°56' W 076°25'0 0.2
2017-Sep-11 11:30N 38°56' W 076°25'0 0.2
2017-Sep-11 11:00N 38°56' W 076°25'0 0.1
2017-Sep-11 10:30N 38°56' W 076°25'0 0.1
2017-Sep-11 10:00N 38°56' W 076°25'0 0.0
2017-Sep-11 09:30N 38°56' W 076°25'0 0.0
2017-Sep-11 09:00N 38°56' W 076°25'0 0.0
2017-Sep-11 08:30N 38°56' W 076°25'0 0.0
2017-Sep-11 08:00N 38°56' W 076°25'0 0.0
2017-Sep-11 07:30N 38°56' W 076°25'0 0.0
2017-Sep-11 07:00N 38°56' W 076°25'0 0.0
2017-Sep-11 06:30N 38°56' W 076°25'0 0.0
2017-Sep-11 06:00N 38°56' W 076°25'0 0.0
2017-Sep-11 05:30N 38°56' W 076°25'0 0.0
2017-Sep-11 05:00N 38°56' W 076°25'0 0.1
2017-Sep-11 04:30N 38°56' W 076°25'0 0.1
2017-Sep-11 04:00N 38°56' W 076°25'0 0.2
2017-Sep-11 03:30N 38°56' W 076°25'0 0.1
2017-Sep-11 03:00N 38°56' W 076°25'0 0.0
2017-Sep-11 02:30N 38°56' W 076°25'0 0.0
2017-Sep-11 02:00N 38°56' W 076°25'0 0.0
2017-Sep-11 01:30N 38°56' W 076°25'0 0.0
2017-Sep-11 01:00N 38°56' W 076°25'0 0.0
2017-Sep-11 00:30N 38°56' W 076°25'0 0.0
2017-Sep-11 00:00N 38°56' W 076°25'0 0.2
2017-Sep-10 23:30N 38°56' W 076°25'0 0.1
2017-Sep-10 23:00N 38°56' W 076°25'0 1.0
2017-Sep-10 22:30N 38°56' W 076°24'510.4
2017-Sep-10 22:01N 38°51' W 076°24'714.0
2017-Sep-10 21:31N 38°44' W 076°26'10313.7
2017-Sep-10 14:00N 37°03' W 076°05'713.5
2017-Sep-10 13:28N 36°57' W 075°59'5 9.8
2017-Sep-10 13:00N 36°57' W 075°53'17912.9
2017-Sep-09 23:06N 39°29' W 073°54'114.3
2017-Sep-09 22:59N 39°31' W 073°54'714.4
2017-Sep-09 22:29N 39°38' W 073°53'714.5
2017-Sep-09 22:00N 39°45' W 073°52'714.4
2017-Sep-09 21:30N 39°52' W 073°51'3114.4
2017-Sep-09 19:19N 40°23' W 073°48'411.3
2017-Sep-09 19:00N 40°27' W 073°49'510.9
2017-Sep-09 18:30N 40°29' W 073°55'612.5
2017-Sep-09 18:00N 40°33' W 074°02'612.0
2017-Sep-09 17:30N 40°39' W 074°04'3 6.9
2017-Sep-09 17:00N 40°39' W 074°08'2 4.1
2017-Sep-09 16:30N 40°41' W 074°08'0 0.8
2017-Sep-09 16:00N 40°41' W 074°08'0 0.0
2017-Sep-09 15:30N 40°41' W 074°08'0 0.0
2017-Sep-09 15:00N 40°41' W 074°08'0 0.0
2017-Sep-09 14:30N 40°41' W 074°08'0 0.0
2017-Sep-09 14:00N 40°41' W 074°08'0 0.0
2017-Sep-09 13:30N 40°41' W 074°08'0 0.0
2017-Sep-09 13:00N 40°41' W 074°08'0 0.0
2017-Sep-09 12:30N 40°41' W 074°08'0 0.0
2017-Sep-09 12:00N 40°41' W 074°08'0 0.0
2017-Sep-09 11:30N 40°41' W 074°08'0 0.0
2017-Sep-09 11:00N 40°41' W 074°08'0 0.0
2017-Sep-09 10:30N 40°41' W 074°08'0 0.0
2017-Sep-09 10:00N 40°41' W 074°08'0 0.0
2017-Sep-09 09:30N 40°41' W 074°08'0 0.0
2017-Sep-09 09:00N 40°41' W 074°08'0 0.0
2017-Sep-09 08:30N 40°41' W 074°08'0 0.0
2017-Sep-09 08:00N 40°41' W 074°08'0 0.0
2017-Sep-09 07:30N 40°41' W 074°08'0 0.0
2017-Sep-09 07:00N 40°41' W 074°08'0 0.0
2017-Sep-09 06:30N 40°41' W 074°08'0 0.0
2017-Sep-09 06:00N 40°41' W 074°08'0 0.0
2017-Sep-09 05:30N 40°41' W 074°08'0 0.0
2017-Sep-09 05:00N 40°41' W 074°08'0 0.0
2017-Sep-09 04:30N 40°41' W 074°08'0 0.0
2017-Sep-09 04:00N 40°41' W 074°08'0 0.0
2017-Sep-09 03:30N 40°41' W 074°08'0 0.0
2017-Sep-09 03:00N 40°41' W 074°08'0 0.0
2017-Sep-09 02:30N 40°41' W 074°08'0 0.0
2017-Sep-09 02:00N 40°41' W 074°08'0 0.0
2017-Sep-09 01:27N 40°41' W 074°08'0 0.0
2017-Sep-09 01:00N 40°41' W 074°08'0 0.0
2017-Sep-09 00:30N 40°41' W 074°08'0 0.0
2017-Sep-09 00:00N 40°41' W 074°08'0 0.0
2017-Sep-08 23:30N 40°41' W 074°08'0 0.0
2017-Sep-08 23:00N 40°41' W 074°08'0 0.0
2017-Sep-08 22:30N 40°41' W 074°08'0 0.0
2017-Sep-08 22:00N 40°41' W 074°08'0 0.0
2017-Sep-08 21:30N 40°41' W 074°08'0 0.0
2017-Sep-08 21:00N 40°41' W 074°08'0 0.0
2017-Sep-08 20:30N 40°41' W 074°08'0 0.0
2017-Sep-08 20:00N 40°41' W 074°08'0 0.0
2017-Sep-08 19:30N 40°41' W 074°08'0 0.0
2017-Sep-08 19:00N 40°41' W 074°08'0 0.0
2017-Sep-08 18:30N 40°41' W 074°08'0 0.0
2017-Sep-08 18:00N 40°41' W 074°08'0 0.0
2017-Sep-08 17:30N 40°41' W 074°08'0 0.0
2017-Sep-08 17:00N 40°41' W 074°08'0 0.0
2017-Sep-08 16:27N 40°41' W 074°08'0 0.0
2017-Sep-08 16:00N 40°41' W 074°08'0 0.0
2017-Sep-08 15:24N 40°41' W 074°08'0 0.0
2017-Sep-08 14:54N 40°41' W 074°08'0 0.0
2017-Sep-08 14:30N 40°41' W 074°08'0 0.0
2017-Sep-08 14:00N 40°41' W 074°08'0 0.0
2017-Sep-08 13:30N 40°41' W 074°08'0 0.0
2017-Sep-08 13:00N 40°41' W 074°08'0 0.0
2017-Sep-08 12:30N 40°41' W 074°08'0 0.0
2017-Sep-08 12:00N 40°41' W 074°08'0 0.0
2017-Sep-08 11:30N 40°41' W 074°08'0 0.0
2017-Sep-08 11:00N 40°41' W 074°08'0 0.0
2017-Sep-08 10:30N 40°41' W 074°08'0 0.0
2017-Sep-08 10:00N 40°41' W 074°08'0 0.0
2017-Sep-08 09:30N 40°41' W 074°08'0 0.0
2017-Sep-08 09:00N 40°41' W 074°08'0 0.0
2017-Sep-08 08:28N 40°41' W 074°08'0 0.0
2017-Sep-08 07:58N 40°41' W 074°08'0 0.0
2017-Sep-08 07:28N 40°41' W 074°08'0 0.0
2017-Sep-08 06:58N 40°41' W 074°08'0 0.0
2017-Sep-08 06:28N 40°41' W 074°08'0 0.0
2017-Sep-08 05:58N 40°41' W 074°08'0 0.0
2017-Sep-08 05:28N 40°41' W 074°08'0 0.0
2017-Sep-08 04:58N 40°41' W 074°08'0 0.0
2017-Sep-08 04:28N 40°41' W 074°08'0 0.0
2017-Sep-08 03:58N 40°41' W 074°08'0 0.0
2017-Sep-08 03:28N 40°41' W 074°08'0 0.0
2017-Sep-08 02:58N 40°41' W 074°08'0 0.0
2017-Sep-08 02:28N 40°41' W 074°08'0 0.0
2017-Sep-08 01:58N 40°41' W 074°08'0 0.0
2017-Sep-08 01:28N 40°41' W 074°08'0 0.0
2017-Sep-08 00:58N 40°41' W 074°08'0 0.0
2017-Sep-08 00:28N 40°41' W 074°08'0 0.0
2017-Sep-07 23:58N 40°41' W 074°08'0 0.0
2017-Sep-07 23:28N 40°41' W 074°08'0 0.0
2017-Sep-07 22:58N 40°41' W 074°08'0 0.0
2017-Sep-07 22:28N 40°41' W 074°08'0 0.0
2017-Sep-07 21:58N 40°41' W 074°08'0 0.0
2017-Sep-07 21:28N 40°41' W 074°08'0 0.0
2017-Sep-07 20:58N 40°41' W 074°08'0 0.0
2017-Sep-07 20:28N 40°41' W 074°08'0 0.0
2017-Sep-07 19:58N 40°41' W 074°08'0 0.0
2017-Sep-07 19:28N 40°41' W 074°08'0 0.0
2017-Sep-07 18:58N 40°41' W 074°08'0 0.0
2017-Sep-07 18:28N 40°41' W 074°08'0 0.0
2017-Sep-07 17:58N 40°41' W 074°08'0 0.0
2017-Sep-07 17:22N 40°41' W 074°08'0 0.0
2017-Sep-07 16:58N 40°41' W 074°08'0 0.0
2017-Sep-07 16:28N 40°41' W 074°08'0 0.0
2017-Sep-07 15:58N 40°41' W 074°08'0 0.0
2017-Sep-07 15:28N 40°41' W 074°08'0 0.0
2017-Sep-07 14:58N 40°41' W 074°08'0 0.0
2017-Sep-07 14:28N 40°41' W 074°08'0 0.0
2017-Sep-07 13:58N 40°41' W 074°08'0 0.0
2017-Sep-07 13:28N 40°41' W 074°08'0 0.0
2017-Sep-07 12:58N 40°41' W 074°08'0 0.0
2017-Sep-07 12:28N 40°41' W 074°08'0 0.0
2017-Sep-07 11:58N 40°41' W 074°08'0 0.0
2017-Sep-07 11:22N 40°41' W 074°08'0 0.0
2017-Sep-07 10:58N 40°41' W 074°08'0 0.0
2017-Sep-07 10:28N 40°41' W 074°08'0 0.0
2017-Sep-07 09:58N 40°41' W 074°08'0 0.0
2017-Sep-07 09:28N 40°41' W 074°08'0 0.0
2017-Sep-07 08:58N 40°41' W 074°08'0 0.0
2017-Sep-07 08:28N 40°41' W 074°08'0 0.0
2017-Sep-07 07:58N 40°41' W 074°08'0 0.0
2017-Sep-07 07:28N 40°41' W 074°08'0 0.0
2017-Sep-07 06:55N 40°41' W 074°08'0 0.0
2017-Sep-07 06:28N 40°41' W 074°08'0 0.0
2017-Sep-07 05:58N 40°41' W 074°08'0 0.0
2017-Sep-07 05:28N 40°41' W 074°08'0 0.0
2017-Sep-07 04:58N 40°41' W 074°08'0 0.0
2017-Sep-07 04:28N 40°41' W 074°08'0 0.0
2017-Sep-07 03:58N 40°41' W 074°08'0 0.0
2017-Sep-07 03:28N 40°41' W 074°08'0 0.0
2017-Sep-07 02:58N 40°41' W 074°08'0 0.0
2017-Sep-07 02:28N 40°41' W 074°08'0 0.0
2017-Sep-07 01:58N 40°41' W 074°08'0 0.0
2017-Sep-07 01:28N 40°41' W 074°08'0 0.0
2017-Sep-07 00:58N 40°41' W 074°08'0 0.0
2017-Sep-07 00:28N 40°41' W 074°08'0 0.0
2017-Sep-06 23:58N 40°41' W 074°08'0 0.0
2017-Sep-06 23:28N 40°41' W 074°08'0 0.0
2017-Sep-06 22:58N 40°41' W 074°08'0 0.0
2017-Sep-06 22:28N 40°41' W 074°08'0 0.0
2017-Sep-06 21:58N 40°41' W 074°08'0 0.0
2017-Sep-06 21:28N 40°41' W 074°08'0 0.0
2017-Sep-06 20:58N 40°41' W 074°08'0 0.0
2017-Sep-06 20:25N 40°41' W 074°08'0 0.0
2017-Sep-06 19:58N 40°41' W 074°08'0 0.0
2017-Sep-06 19:28N 40°41' W 074°08'0 0.0
2017-Sep-06 18:58N 40°41' W 074°08'0 0.0
2017-Sep-06 18:28N 40°41' W 074°08'0 0.0
2017-Sep-06 17:58N 40°41' W 074°08'0 0.0
2017-Sep-06 17:28N 40°41' W 074°08'0 0.0
2017-Sep-06 16:58N 40°41' W 074°08'0 0.0
2017-Sep-06 16:28N 40°41' W 074°08'0 0.0
2017-Sep-06 15:58N 40°41' W 074°08'0 0.0
2017-Sep-06 15:28N 40°41' W 074°08'0 0.0
2017-Sep-06 14:58N 40°41' W 074°08'0 0.0
2017-Sep-06 14:28N 40°41' W 074°08'0 0.0
2017-Sep-06 13:58N 40°41' W 074°08'0 0.0
2017-Sep-06 13:28N 40°41' W 074°08'0 0.0
2017-Sep-06 12:58N 40°41' W 074°08'0 0.0
2017-Sep-06 12:28N 40°41' W 074°08'0 0.0
2017-Sep-06 11:58N 40°41' W 074°08'0 0.0
2017-Sep-06 11:28N 40°41' W 074°08'0 0.0
2017-Sep-06 10:58N 40°41' W 074°08'0 0.0
2017-Sep-06 10:28N 40°41' W 074°08'0 0.0
2017-Sep-06 09:58N 40°41' W 074°08'0 0.0
2017-Sep-06 09:28N 40°41' W 074°08'0 0.0
2017-Sep-06 08:58N 40°41' W 074°08'0 0.0
2017-Sep-06 08:25N 40°41' W 074°08'0 0.0
2017-Sep-06 07:58N 40°41' W 074°08'0 0.0
2017-Sep-06 07:28N 40°41' W 074°08'0 0.0
2017-Sep-06 06:58N 40°41' W 074°08'0 0.0
2017-Sep-06 06:28N 40°41' W 074°08'0 0.0
2017-Sep-06 05:58N 40°41' W 074°08'0 0.0
2017-Sep-06 05:28N 40°41' W 074°08'0 0.0
2017-Sep-06 04:58N 40°41' W 074°08'0 0.0
2017-Sep-06 04:28N 40°41' W 074°08'0 0.0
2017-Sep-06 03:58N 40°41' W 074°08'0 0.0
2017-Sep-06 03:28N 40°41' W 074°08'0 0.0
2017-Sep-06 02:58N 40°41' W 074°08'0 0.0
2017-Sep-06 02:28N 40°41' W 074°08'0 0.0
2017-Sep-06 01:58N 40°41' W 074°08'0 0.0
2017-Sep-06 01:28N 40°41' W 074°08'0 0.0
2017-Sep-06 00:58N 40°41' W 074°08'0 0.0
2017-Sep-06 00:28N 40°41' W 074°08'0 0.0
2017-Sep-05 23:58N 40°41' W 074°08'0 0.0
2017-Sep-05 23:28N 40°41' W 074°08'0 0.0
2017-Sep-05 22:58N 40°41' W 074°08'0 0.0
2017-Sep-05 22:28N 40°41' W 074°08'0 0.0
2017-Sep-05 21:58N 40°41' W 074°08'0 0.0
2017-Sep-05 21:28N 40°41' W 074°08'0 0.0
2017-Sep-05 20:58N 40°41' W 074°08'0 0.0
2017-Sep-05 20:28N 40°41' W 074°08'0 0.0
2017-Sep-05 19:58N 40°41' W 074°08'0 0.0
2017-Sep-05 19:28N 40°41' W 074°08'0 0.0
2017-Sep-05 18:58N 40°41' W 074°08'0 0.0
2017-Sep-05 18:28N 40°41' W 074°08'0 0.0
2017-Sep-05 17:58N 40°41' W 074°08'0 0.0
2017-Sep-05 17:25N 40°41' W 074°08'0 0.0
2017-Sep-05 16:58N 40°41' W 074°08'0 0.0
2017-Sep-05 16:28N 40°41' W 074°08'0 0.0
2017-Sep-05 15:58N 40°41' W 074°08'0 0.0
2017-Sep-05 15:28N 40°41' W 074°08'0 0.0
2017-Sep-05 14:58N 40°41' W 074°08'0 0.0
2017-Sep-05 14:28N 40°41' W 074°08'0 0.0
2017-Sep-05 13:58N 40°41' W 074°08'0 0.0
2017-Sep-05 13:28N 40°41' W 074°08'0 0.0
2017-Sep-05 12:55N 40°41' W 074°08'0 0.0
2017-Sep-05 12:28N 40°41' W 074°08'0 0.0
2017-Sep-05 11:58N 40°41' W 074°08'0 0.0
2017-Sep-05 11:28N 40°41' W 074°08'0 0.0
2017-Sep-05 10:58N 40°41' W 074°08'0 0.0
2017-Sep-05 10:28N 40°41' W 074°08'0 0.6
2017-Sep-05 10:00N 40°41' W 074°09'2 3.3
2017-Sep-05 09:30N 40°39' W 074°09'2 4.9
2017-Sep-05 09:01N 40°39' W 074°06'3 5.2
2017-Sep-05 08:30N 40°37' W 074°03'5 9.6
2017-Sep-05 08:00N 40°33' W 074°01'5 9.4
2017-Sep-05 07:30N 40°30' W 073°56'5 9.6
2017-Sep-05 07:00N 40°28' W 073°51'5 8.5
2017-Sep-05 06:26N 40°27' W 073°44'3 6.7
2017-Sep-05 05:59N 40°30' W 073°42'1 1.4
2017-Sep-05 05:25N 40°30' W 073°41'1 0.2
2017-Sep-04 23:40N 40°31' W 073°40'0 0.0
2017-Sep-04 23:19N 40°31' W 073°40'0 0.0
2017-Sep-04 21:58N 40°31' W 073°40'  
Track history (hours):
 
Tides and Currents Weather Stations Pressure Air Temp Water Temp Dewpoint Dewpoint Depression Visibility Wind Speed Wind Dir Waves Ship Positions

Pacific Seagull

Last reported at 2017-Sep-14 18:15 UTC. Time now 2017-Sep-19 22:15 UTC.
Position N 36°51' W 075°52'.

Length 199 m; draft 12.5 m.

Type: Cargo ship. MMSI: 370485000.

Date/timePositionNaut miles runAvg speedWind from/ knotsBaromVisibWave heightAir tempDewpointWater temp
2017-Sep-14 18:15N 36°51' W 075°52'311.0
2017-Sep-14 18:00N 36°53' W 075°54'510.0
2017-Sep-14 17:30N 36°57' W 075°59'4 8.1
2017-Sep-14 17:00N 37°00' W 076°02'4 7.4
2017-Sep-14 16:30N 37°03' W 076°05'2711.3
2017-Sep-14 14:08N 37°30' W 076°03'212.1
2017-Sep-14 14:00N 37°31' W 076°03'611.4
2017-Sep-14 13:31N 37°36' W 076°05'611.9
2017-Sep-14 13:00N 37°41' W 076°10'611.4
2017-Sep-14 12:30N 37°47' W 076°11'611.9
2017-Sep-14 12:00N 37°53' W 076°09'611.3
2017-Sep-14 11:30N 37°58' W 076°11'611.7
2017-Sep-14 11:00N 38°04' W 076°13'712.3
2017-Sep-14 10:28N 38°10' W 076°14'1012.3
2017-Sep-14 09:41N 38°19' W 076°18'1512.7
2017-Sep-14 08:31N 38°33' W 076°26'612.1
2017-Sep-14 08:01N 38°39' W 076°25'612.2
2017-Sep-14 07:31N 38°45' W 076°26'612.4
2017-Sep-14 07:00N 38°51' W 076°24'5 9.8
2017-Sep-14 06:31N 38°56' W 076°24'1 2.1
2017-Sep-14 05:58N 38°57' W 076°24'0 0.0
2017-Sep-14 05:28N 38°57' W 076°24'0 0.0
2017-Sep-14 04:58N 38°57' W 076°24'0 0.0
2017-Sep-14 04:28N 38°57' W 076°24'0 0.0
2017-Sep-14 03:58N 38°57' W 076°24'0 0.0
2017-Sep-14 03:28N 38°57' W 076°24'0 0.0
2017-Sep-14 02:58N 38°57' W 076°24'0 0.0
2017-Sep-14 02:28N 38°57' W 076°24'0 0.0
2017-Sep-14 01:58N 38°57' W 076°24'0 0.0
2017-Sep-14 01:28N 38°57' W 076°24'0 0.0
2017-Sep-14 00:58N 38°57' W 076°24'0 0.1
2017-Sep-14 00:28N 38°57' W 076°24'0 0.1
2017-Sep-14 00:00N 38°57' W 076°24'3 5.5
2017-Sep-13 23:30N 38°60' W 076°23'611.7
2017-Sep-13 23:01N 39°05' W 076°24'611.1
2017-Sep-13 22:30N 39°11' W 076°26'5 9.4
2017-Sep-13 22:00N 39°13' W 076°31'3 6.3
2017-Sep-13 21:30N 39°15' W 076°34'0 0.5
2017-Sep-13 21:00N 39°15' W 076°34'0 0.0
2017-Sep-13 20:30N 39°15' W 076°34'0 0.0
2017-Sep-13 20:00N 39°15' W 076°34'0 0.0
2017-Sep-13 19:30N 39°15' W 076°34'0 0.0
2017-Sep-13 19:00N 39°15' W 076°34'0 0.0
2017-Sep-13 18:29N 39°15' W 076°34'0 0.0
2017-Sep-13 17:59N 39°15' W 076°34'0 0.0
2017-Sep-13 17:29N 39°15' W 076°34'0 0.0
2017-Sep-13 16:59N 39°15' W 076°34'0 0.0
2017-Sep-13 16:29N 39°15' W 076°34'0 0.0
2017-Sep-13 15:59N 39°15' W 076°34'0 0.0
2017-Sep-13 15:29N 39°15' W 076°34'0 0.0
2017-Sep-13 14:59N 39°15' W 076°34'0 0.0
2017-Sep-13 14:29N 39°15' W 076°34'0 0.0
2017-Sep-13 13:59N 39°15' W 076°34'0 0.0
2017-Sep-13 13:29N 39°15' W 076°34'0 0.0
2017-Sep-13 12:59N 39°15' W 076°34'0 0.0
2017-Sep-13 12:30N 39°15' W 076°34'0 0.0
2017-Sep-13 12:00N 39°15' W 076°34'0 0.0
2017-Sep-13 11:30N 39°15' W 076°34'0 0.0
2017-Sep-13 10:59N 39°15' W 076°34'0 0.0
2017-Sep-13 10:30N 39°15' W 076°34'0 0.0
2017-Sep-13 10:00N 39°15' W 076°34'0 0.0
2017-Sep-13 09:30N 39°15' W 076°34'0 0.0
2017-Sep-13 09:00N 39°15' W 076°34'0 0.0
2017-Sep-13 08:30N 39°15' W 076°34'0 0.0
2017-Sep-13 07:59N 39°15' W 076°34'0 0.0
2017-Sep-13 07:30N 39°15' W 076°34'0 0.0
2017-Sep-13 07:00N 39°15' W 076°34'0 0.0
2017-Sep-13 06:29N 39°15' W 076°34'0 0.0
2017-Sep-13 06:00N 39°15' W 076°34'0 0.0
2017-Sep-13 05:29N 39°15' W 076°34'0 0.0
2017-Sep-13 05:00N 39°15' W 076°34'0 0.0
2017-Sep-13 04:29N 39°15' W 076°34'0 0.0
2017-Sep-13 04:00N 39°15' W 076°34'0 0.0
2017-Sep-13 03:29N 39°15' W 076°34'0 0.0
2017-Sep-13 03:00N 39°15' W 076°34'0 0.0
2017-Sep-13 02:30N 39°15' W 076°34'0 0.0
2017-Sep-13 02:00N 39°15' W 076°34'0 0.0
2017-Sep-13 01:29N 39°15' W 076°34'0 0.0
2017-Sep-13 00:59N 39°15' W 076°34'0 0.0
2017-Sep-13 00:30N 39°15' W 076°34'0 0.0
2017-Sep-12 23:59N 39°15' W 076°34'0 0.0
2017-Sep-12 23:29N 39°15' W 076°34'0 0.0
2017-Sep-12 23:00N 39°15' W 076°34'0 0.0
2017-Sep-12 22:29N 39°15' W 076°34'0 0.4
2017-Sep-12 22:00N 39°15' W 076°34'2 3.6
2017-Sep-12 21:30N 39°14' W 076°33'4 7.4
2017-Sep-12 21:00N 39°12' W 076°29'510.0
2017-Sep-12 20:31N 39°08' W 076°24'713.0
2017-Sep-12 20:00N 39°02' W 076°23'511.0
2017-Sep-12 19:31N 38°56' W 076°25'0 0.7
2017-Sep-12 19:00N 38°56' W 076°25'0 0.0
2017-Sep-12 18:30N 38°56' W 076°25'0 0.0
2017-Sep-12 18:00N 38°56' W 076°25'0 0.0
2017-Sep-12 17:30N 38°56' W 076°25'0 0.2
2017-Sep-12 17:00N 38°56' W 076°25'0 0.2
2017-Sep-12 16:30N 38°56' W 076°25'0 0.0
2017-Sep-12 16:00N 38°56' W 076°25'0 0.0
2017-Sep-12 15:30N 38°56' W 076°25'0 0.1
2017-Sep-12 15:00N 38°56' W 076°25'0 0.0
2017-Sep-12 14:30N 38°56' W 076°25'0 0.0
2017-Sep-12 14:00N 38°56' W 076°25'0 0.0
2017-Sep-12 13:30N 38°56' W 076°25'0 0.1
2017-Sep-12 13:00N 38°56' W 076°25'0 0.1
2017-Sep-12 12:30N 38°56' W 076°25'0 0.1
2017-Sep-12 12:00N 38°56' W 076°25'0 0.1
2017-Sep-12 11:30N 38°56' W 076°25'0 0.1
2017-Sep-12 11:00N 38°56' W 076°25'0 0.0
2017-Sep-12 10:30N 38°56' W 076°25'0 0.1
2017-Sep-12 10:00N 38°56' W 076°25'0 0.1
2017-Sep-12 09:30N 38°56' W 076°25'0 0.0
2017-Sep-12 09:00N 38°56' W 076°25'0 0.0
2017-Sep-12 08:30N 38°56' W 076°25'0 0.0
2017-Sep-12 08:00N 38°56' W 076°25'0 0.0
2017-Sep-12 07:30N 38°56' W 076°25'0 0.0
2017-Sep-12 07:00N 38°56' W 076°25'0 0.0
2017-Sep-12 06:30N 38°56' W 076°25'0 0.1
2017-Sep-12 06:00N 38°56' W 076°25'0 0.1
2017-Sep-12 05:30N 38°56' W 076°25'0 0.1
2017-Sep-12 05:00N 38°56' W 076°25'0 0.1
2017-Sep-12 04:30N 38°56' W 076°25'0 0.1
2017-Sep-12 04:00N 38°56' W 076°25'0 0.0
2017-Sep-12 03:30N 38°56' W 076°25'0 0.0
2017-Sep-12 03:00N 38°56' W 076°25'0 0.0
2017-Sep-12 02:30N 38°56' W 076°25'0 0.0
2017-Sep-12 02:00N 38°56' W 076°25'0 0.0
2017-Sep-12 01:30N 38°56' W 076°25'0 0.0
2017-Sep-12 01:00N 38°56' W 076°25'0 0.1
2017-Sep-12 00:30N 38°56' W 076°25'0 0.1
2017-Sep-12 00:00N 38°56' W 076°25'0 0.2
2017-Sep-11 23:30N 38°56' W 076°25'0 0.2
2017-Sep-11 23:00N 38°56' W 076°25'0 0.1
2017-Sep-11 22:30N 38°56' W 076°25'0 0.0
2017-Sep-11 22:00N 38°56' W 076°25'0 0.0
2017-Sep-11 21:30N 38°56' W 076°25'0 0.0
2017-Sep-11 21:00N 38°56' W 076°25'0 0.0
2017-Sep-11 20:30N 38°56' W 076°25'0 0.0
2017-Sep-11 20:00N 38°56' W 076°25'0 0.0
2017-Sep-11 19:30N 38°56' W 076°25'0 0.0
2017-Sep-11 19:00N 38°56' W 076°25'0 0.0
2017-Sep-11 18:30N 38°56' W 076°25'0 0.0
2017-Sep-11 18:00N 38°56' W 076°25'0 0.0
2017-Sep-11 17:30N 38°56' W 076°25'0 0.0
2017-Sep-11 17:00N 38°56' W 076°25'0 0.0
2017-Sep-11 16:27N 38°56' W 076°25'0 0.2
2017-Sep-11 16:00N 38°56' W 076°25'0 0.1
2017-Sep-11 15:30N 38°56' W 076°25'0 0.1
2017-Sep-11 15:00N 38°56' W 076°25'0 0.1
2017-Sep-11 14:30N 38°56' W 076°25'0 0.0
2017-Sep-11 14:00N 38°56' W 076°25'0 0.0
2017-Sep-11 13:30N 38°56' W 076°25'0 0.0
2017-Sep-11 13:00N 38°56' W 076°25'0 0.0
2017-Sep-11 12:30N 38°56' W 076°25'0 0.1
2017-Sep-11 12:00N 38°56' W 076°25'0 0.2
2017-Sep-11 11:30N 38°56' W 076°25'0 0.2
2017-Sep-11 11:00N 38°56' W 076°25'0 0.1
2017-Sep-11 10:30N 38°56' W 076°25'0 0.1
2017-Sep-11 10:00N 38°56' W 076°25'0 0.0
2017-Sep-11 09:30N 38°56' W 076°25'0 0.0
2017-Sep-11 09:00N 38°56' W 076°25'0 0.0
2017-Sep-11 08:30N 38°56' W 076°25'0 0.0
2017-Sep-11 08:00N 38°56' W 076°25'0 0.0
2017-Sep-11 07:30N 38°56' W 076°25'0 0.0
2017-Sep-11 07:00N 38°56' W 076°25'0 0.0
2017-Sep-11 06:30N 38°56' W 076°25'0 0.0
2017-Sep-11 06:00N 38°56' W 076°25'0 0.0
2017-Sep-11 05:30N 38°56' W 076°25'0 0.0
2017-Sep-11 05:00N 38°56' W 076°25'0 0.1
2017-Sep-11 04:30N 38°56' W 076°25'0 0.1
2017-Sep-11 04:00N 38°56' W 076°25'0 0.2
2017-Sep-11 03:30N 38°56' W 076°25'0 0.1
2017-Sep-11 03:00N 38°56' W 076°25'0 0.0
2017-Sep-11 02:30N 38°56' W 076°25'0 0.0
2017-Sep-11 02:00N 38°56' W 076°25'0 0.0
2017-Sep-11 01:30N 38°56' W 076°25'0 0.0
2017-Sep-11 01:00N 38°56' W 076°25'0 0.0
2017-Sep-11 00:30N 38°56' W 076°25'0 0.0
2017-Sep-11 00:00N 38°56' W 076°25'0 0.2
2017-Sep-10 23:30N 38°56' W 076°25'0 0.1
2017-Sep-10 23:00N 38°56' W 076°25'0 1.0
2017-Sep-10 22:30N 38°56' W 076°24'510.4
2017-Sep-10 22:01N 38°51' W 076°24'714.0
2017-Sep-10 21:31N 38°44' W 076°26'10313.7
2017-Sep-10 14:00N 37°03' W 076°05'713.5
2017-Sep-10 13:28N 36°57' W 075°59'5 9.8
2017-Sep-10 13:00N 36°57' W 075°53'17912.9
2017-Sep-09 23:06N 39°29' W 073°54'114.3
2017-Sep-09 22:59N 39°31' W 073°54'714.4
2017-Sep-09 22:29N 39°38' W 073°53'714.5
2017-Sep-09 22:00N 39°45' W 073°52'714.4
2017-Sep-09 21:30N 39°52' W 073°51'3114.4
2017-Sep-09 19:19N 40°23' W 073°48'411.3
2017-Sep-09 19:00N 40°27' W 073°49'510.9
2017-Sep-09 18:30N 40°29' W 073°55'612.5
2017-Sep-09 18:00N 40°33' W 074°02'612.0
2017-Sep-09 17:30N 40°39' W 074°04'3 6.9
2017-Sep-09 17:00N 40°39' W 074°08'2 4.1
2017-Sep-09 16:30N 40°41' W 074°08'0 0.8
2017-Sep-09 16:00N 40°41' W 074°08'0 0.0
2017-Sep-09 15:30N 40°41' W 074°08'0 0.0
2017-Sep-09 15:00N 40°41' W 074°08'0 0.0
2017-Sep-09 14:30N 40°41' W 074°08'0 0.0
2017-Sep-09 14:00N 40°41' W 074°08'0 0.0
2017-Sep-09 13:30N 40°41' W 074°08'0 0.0
2017-Sep-09 13:00N 40°41' W 074°08'0 0.0
2017-Sep-09 12:30N 40°41' W 074°08'0 0.0
2017-Sep-09 12:00N 40°41' W 074°08'0 0.0
2017-Sep-09 11:30N 40°41' W 074°08'0 0.0
2017-Sep-09 11:00N 40°41' W 074°08'0 0.0
2017-Sep-09 10:30N 40°41' W 074°08'0 0.0
2017-Sep-09 10:00N 40°41' W 074°08'0 0.0
2017-Sep-09 09:30N 40°41' W 074°08'0 0.0
2017-Sep-09 09:00N 40°41' W 074°08'0 0.0
2017-Sep-09 08:30N 40°41' W 074°08'0 0.0
2017-Sep-09 08:00N 40°41' W 074°08'0 0.0
2017-Sep-09 07:30N 40°41' W 074°08'0 0.0
2017-Sep-09 07:00N 40°41' W 074°08'0 0.0
2017-Sep-09 06:30N 40°41' W 074°08'0 0.0
2017-Sep-09 06:00N 40°41' W 074°08'0 0.0
2017-Sep-09 05:30N 40°41' W 074°08'0 0.0
2017-Sep-09 05:00N 40°41' W 074°08'0 0.0
2017-Sep-09 04:30N 40°41' W 074°08'0 0.0
2017-Sep-09 04:00N 40°41' W 074°08'0 0.0
2017-Sep-09 03:30N 40°41' W 074°08'0 0.0
2017-Sep-09 03:00N 40°41' W 074°08'0 0.0
2017-Sep-09 02:30N 40°41' W 074°08'0 0.0
2017-Sep-09 02:00N 40°41' W 074°08'0 0.0
2017-Sep-09 01:27N 40°41' W 074°08'0 0.0
2017-Sep-09 01:00N 40°41' W 074°08'0 0.0
2017-Sep-09 00:30N 40°41' W 074°08'0 0.0
2017-Sep-09 00:00N 40°41' W 074°08'0 0.0
2017-Sep-08 23:30N 40°41' W 074°08'0 0.0
2017-Sep-08 23:00N 40°41' W 074°08'0 0.0
2017-Sep-08 22:30N 40°41' W 074°08'0 0.0
2017-Sep-08 22:00N 40°41' W 074°08'0 0.0
2017-Sep-08 21:30N 40°41' W 074°08'0 0.0
2017-Sep-08 21:00N 40°41' W 074°08'0 0.0
2017-Sep-08 20:30N 40°41' W 074°08'0 0.0
2017-Sep-08 20:00N 40°41' W 074°08'0 0.0
2017-Sep-08 19:30N 40°41' W 074°08'0 0.0
2017-Sep-08 19:00N 40°41' W 074°08'0 0.0
2017-Sep-08 18:30N 40°41' W 074°08'0 0.0
2017-Sep-08 18:00N 40°41' W 074°08'0 0.0
2017-Sep-08 17:30N 40°41' W 074°08'0 0.0
2017-Sep-08 17:00N 40°41' W 074°08'0 0.0
2017-Sep-08 16:27N 40°41' W 074°08'0 0.0
2017-Sep-08 16:00N 40°41' W 074°08'0 0.0
2017-Sep-08 15:24N 40°41' W 074°08'0 0.0
2017-Sep-08 14:54N 40°41' W 074°08'0 0.0
2017-Sep-08 14:30N 40°41' W 074°08'0 0.0
2017-Sep-08 14:00N 40°41' W 074°08'0 0.0
2017-Sep-08 13:30N 40°41' W 074°08'0 0.0
2017-Sep-08 13:00N 40°41' W 074°08'0 0.0
2017-Sep-08 12:30N 40°41' W 074°08'0 0.0
2017-Sep-08 12:00N 40°41' W 074°08'0 0.0
2017-Sep-08 11:30N 40°41' W 074°08'0 0.0
2017-Sep-08 11:00N 40°41' W 074°08'0 0.0
2017-Sep-08 10:30N 40°41' W 074°08'0 0.0
2017-Sep-08 10:00N 40°41' W 074°08'0 0.0
2017-Sep-08 09:30N 40°41' W 074°08'0 0.0
2017-Sep-08 09:00N 40°41' W 074°08'0 0.0
2017-Sep-08 08:28N 40°41' W 074°08'0 0.0
2017-Sep-08 07:58N 40°41' W 074°08'0 0.0
2017-Sep-08 07:28N 40°41' W 074°08'0 0.0
2017-Sep-08 06:58N 40°41' W 074°08'0 0.0
2017-Sep-08 06:28N 40°41' W 074°08'0 0.0
2017-Sep-08 05:58N 40°41' W 074°08'0 0.0
2017-Sep-08 05:28N 40°41' W 074°08'0 0.0
2017-Sep-08 04:58N 40°41' W 074°08'0 0.0
2017-Sep-08 04:28N 40°41' W 074°08'0 0.0
2017-Sep-08 03:58N 40°41' W 074°08'0 0.0
2017-Sep-08 03:28N 40°41' W 074°08'0 0.0
2017-Sep-08 02:58N 40°41' W 074°08'0 0.0
2017-Sep-08 02:28N 40°41' W 074°08'0 0.0
2017-Sep-08 01:58N 40°41' W 074°08'0 0.0
2017-Sep-08 01:28N 40°41' W 074°08'0 0.0
2017-Sep-08 00:58N 40°41' W 074°08'0 0.0
2017-Sep-08 00:28N 40°41' W 074°08'0 0.0
2017-Sep-07 23:58N 40°41' W 074°08'0 0.0
2017-Sep-07 23:28N 40°41' W 074°08'0 0.0
2017-Sep-07 22:58N 40°41' W 074°08'0 0.0
2017-Sep-07 22:28N 40°41' W 074°08'0 0.0
2017-Sep-07 21:58N 40°41' W 074°08'0 0.0
2017-Sep-07 21:28N 40°41' W 074°08'0 0.0
2017-Sep-07 20:58N 40°41' W 074°08'0 0.0
2017-Sep-07 20:28N 40°41' W 074°08'0 0.0
2017-Sep-07 19:58N 40°41' W 074°08'0 0.0
2017-Sep-07 19:28N 40°41' W 074°08'0 0.0
2017-Sep-07 18:58N 40°41' W 074°08'0 0.0
2017-Sep-07 18:28N 40°41' W 074°08'0 0.0
2017-Sep-07 17:58N 40°41' W 074°08'0 0.0
2017-Sep-07 17:22N 40°41' W 074°08'0 0.0
2017-Sep-07 16:58N 40°41' W 074°08'0 0.0
2017-Sep-07 16:28N 40°41' W 074°08'0 0.0
2017-Sep-07 15:58N 40°41' W 074°08'0 0.0
2017-Sep-07 15:28N 40°41' W 074°08'0 0.0
2017-Sep-07 14:58N 40°41' W 074°08'0 0.0
2017-Sep-07 14:28N 40°41' W 074°08'0 0.0
2017-Sep-07 13:58N 40°41' W 074°08'0 0.0
2017-Sep-07 13:28N 40°41' W 074°08'0 0.0
2017-Sep-07 12:58N 40°41' W 074°08'0 0.0
2017-Sep-07 12:28N 40°41' W 074°08'0 0.0
2017-Sep-07 11:58N 40°41' W 074°08'0 0.0
2017-Sep-07 11:22N 40°41' W 074°08'0 0.0
2017-Sep-07 10:58N 40°41' W 074°08'0 0.0
2017-Sep-07 10:28N 40°41' W 074°08'0 0.0
2017-Sep-07 09:58N 40°41' W 074°08'0 0.0
2017-Sep-07 09:28N 40°41' W 074°08'0 0.0
2017-Sep-07 08:58N 40°41' W 074°08'0 0.0
2017-Sep-07 08:28N 40°41' W 074°08'0 0.0
2017-Sep-07 07:58N 40°41' W 074°08'0 0.0
2017-Sep-07 07:28N 40°41' W 074°08'0 0.0
2017-Sep-07 06:55N 40°41' W 074°08'0 0.0
2017-Sep-07 06:28N 40°41' W 074°08'0 0.0
2017-Sep-07 05:58N 40°41' W 074°08'0 0.0
2017-Sep-07 05:28N 40°41' W 074°08'0 0.0
2017-Sep-07 04:58N 40°41' W 074°08'0 0.0
2017-Sep-07 04:28N 40°41' W 074°08'0 0.0
2017-Sep-07 03:58N 40°41' W 074°08'0 0.0
2017-Sep-07 03:28N 40°41' W 074°08'0 0.0
2017-Sep-07 02:58N 40°41' W 074°08'0 0.0
2017-Sep-07 02:28N 40°41' W 074°08'0 0.0
2017-Sep-07 01:58N 40°41' W 074°08'0 0.0
2017-Sep-07 01:28N 40°41' W 074°08'0 0.0
2017-Sep-07 00:58N 40°41' W 074°08'0 0.0
2017-Sep-07 00:28N 40°41' W 074°08'0 0.0
2017-Sep-06 23:58N 40°41' W 074°08'0 0.0
2017-Sep-06 23:28N 40°41' W 074°08'0 0.0
2017-Sep-06 22:58N 40°41' W 074°08'0 0.0
2017-Sep-06 22:28N 40°41' W 074°08'0 0.0
2017-Sep-06 21:58N 40°41' W 074°08'0 0.0
2017-Sep-06 21:28N 40°41' W 074°08'0 0.0
2017-Sep-06 20:58N 40°41' W 074°08'0 0.0
2017-Sep-06 20:25N 40°41' W 074°08'0 0.0
2017-Sep-06 19:58N 40°41' W 074°08'0 0.0
2017-Sep-06 19:28N 40°41' W 074°08'0 0.0
2017-Sep-06 18:58N 40°41' W 074°08'0 0.0
2017-Sep-06 18:28N 40°41' W 074°08'0 0.0
2017-Sep-06 17:58N 40°41' W 074°08'0 0.0
2017-Sep-06 17:28N 40°41' W 074°08'0 0.0
2017-Sep-06 16:58N 40°41' W 074°08'0 0.0
2017-Sep-06 16:28N 40°41' W 074°08'0 0.0
2017-Sep-06 15:58N 40°41' W 074°08'0 0.0
2017-Sep-06 15:28N 40°41' W 074°08'0 0.0
2017-Sep-06 14:58N 40°41' W 074°08'0 0.0
2017-Sep-06 14:28N 40°41' W 074°08'0 0.0
2017-Sep-06 13:58N 40°41' W 074°08'0 0.0
2017-Sep-06 13:28N 40°41' W 074°08'0 0.0
2017-Sep-06 12:58N 40°41' W 074°08'0 0.0
2017-Sep-06 12:28N 40°41' W 074°08'0 0.0
2017-Sep-06 11:58N 40°41' W 074°08'0 0.0
2017-Sep-06 11:28N 40°41' W 074°08'0 0.0
2017-Sep-06 10:58N 40°41' W 074°08'0 0.0
2017-Sep-06 10:28N 40°41' W 074°08'0 0.0
2017-Sep-06 09:58N 40°41' W 074°08'0 0.0
2017-Sep-06 09:28N 40°41' W 074°08'0 0.0
2017-Sep-06 08:58N 40°41' W 074°08'0 0.0
2017-Sep-06 08:25N 40°41' W 074°08'0 0.0
2017-Sep-06 07:58N 40°41' W 074°08'0 0.0
2017-Sep-06 07:28N 40°41' W 074°08'0 0.0
2017-Sep-06 06:58N 40°41' W 074°08'0 0.0
2017-Sep-06 06:28N 40°41' W 074°08'0 0.0
2017-Sep-06 05:58N 40°41' W 074°08'0 0.0
2017-Sep-06 05:28N 40°41' W 074°08'0 0.0
2017-Sep-06 04:58N 40°41' W 074°08'0 0.0
2017-Sep-06 04:28N 40°41' W 074°08'0 0.0
2017-Sep-06 03:58N 40°41' W 074°08'0 0.0
2017-Sep-06 03:28N 40°41' W 074°08'0 0.0
2017-Sep-06 02:58N 40°41' W 074°08'0 0.0
2017-Sep-06 02:28N 40°41' W 074°08'0 0.0
2017-Sep-06 01:58N 40°41' W 074°08'0 0.0
2017-Sep-06 01:28N 40°41' W 074°08'0 0.0
2017-Sep-06 00:58N 40°41' W 074°08'0 0.0
2017-Sep-06 00:28N 40°41' W 074°08'0 0.0
2017-Sep-05 23:58N 40°41' W 074°08'0 0.0
2017-Sep-05 23:28N 40°41' W 074°08'0 0.0
2017-Sep-05 22:58N 40°41' W 074°08'0 0.0
2017-Sep-05 22:28N 40°41' W 074°08'0 0.0
2017-Sep-05 21:58N 40°41' W 074°08'0 0.0
2017-Sep-05 21:28N 40°41' W 074°08'0 0.0
2017-Sep-05 20:58N 40°41' W 074°08'0 0.0
2017-Sep-05 20:28N 40°41' W 074°08'0 0.0
2017-Sep-05 19:58N 40°41' W 074°08'0 0.0
2017-Sep-05 19:28N 40°41' W 074°08'0 0.0
2017-Sep-05 18:58N 40°41' W 074°08'0 0.0
2017-Sep-05 18:28N 40°41' W 074°08'0 0.0
2017-Sep-05 17:58N 40°41' W 074°08'0 0.0
2017-Sep-05 17:25N 40°41' W 074°08'0 0.0
2017-Sep-05 16:58N 40°41' W 074°08'0 0.0
2017-Sep-05 16:28N 40°41' W 074°08'0 0.0
2017-Sep-05 15:58N 40°41' W 074°08'0 0.0
2017-Sep-05 15:28N 40°41' W 074°08'0 0.0
2017-Sep-05 14:58N 40°41' W 074°08'0 0.0
2017-Sep-05 14:28N 40°41' W 074°08'0 0.0
2017-Sep-05 13:58N 40°41' W 074°08'0 0.0
2017-Sep-05 13:28N 40°41' W 074°08'0 0.0
2017-Sep-05 12:55N 40°41' W 074°08'0 0.0
2017-Sep-05 12:28N 40°41' W 074°08'0 0.0
2017-Sep-05 11:58N 40°41' W 074°08'0 0.0
2017-Sep-05 11:28N 40°41' W 074°08'0 0.0
2017-Sep-05 10:58N 40°41' W 074°08'0 0.0
2017-Sep-05 10:28N 40°41' W 074°08'0 0.6
2017-Sep-05 10:00N 40°41' W 074°09'2 3.3
2017-Sep-05 09:30N 40°39' W 074°09'2 4.9
2017-Sep-05 09:01N 40°39' W 074°06'3 5.2
2017-Sep-05 08:30N 40°37' W 074°03'5 9.6
2017-Sep-05 08:00N 40°33' W 074°01'5 9.4
2017-Sep-05 07:30N 40°30' W 073°56'5 9.6
2017-Sep-05 07:00N 40°28' W 073°51'5 8.5
2017-Sep-05 06:26N 40°27' W 073°44'3 6.7
2017-Sep-05 05:59N 40°30' W 073°42'1 1.4
2017-Sep-05 05:25N 40°30' W 073°41'1 0.2
2017-Sep-04 23:40N 40°31' W 073°40'0 0.0
2017-Sep-04 23:19N 40°31' W 073°40'0 0.0
2017-Sep-04 21:58N 40°31' W 073°40'  

Dump ship's entire track history